Time;durP1;ratioP1;P1;durP2;ratioP2;P2;SDS_P1;SDS_P2;PMS_P1;PMS_P2;Temp;Humidity;BMP_temperature;BMP_pressure;BME280_temperature;BME280_humidity;BME280_pressure;Samples;Min_cycle;Max_cycle;Signal;HPM_P1;HPM_P2
2024/01/31 00:00:53;;;;;;;16.90;13.00;;;;;;;0.98;100.00;101959.45;87793;265;137102;-71
2024/01/31 00:02:55;;;;;;;15.40;11.80;;;;;;;1.01;100.00;101959.77;87177;273;23676;-72
2024/01/31 00:04:57;;;;;;;17.00;12.40;;;;;;;1.00;100.00;101956.67;87110;269;136777;-71
2024/01/31 00:06:59;;;;;;;17.60;13.50;;;;;;;0.98;100.00;101952.95;87270;265;25084;-72
2024/01/31 00:09:01;;;;;;;17.80;14.00;;;;;;;0.97;100.00;101947.24;87177;269;136176;-71
2024/01/31 00:11:03;;;;;;;18.40;14.10;;;;;;;0.96;100.00;101948.64;87292;268;26317;-71
2024/01/31 00:13:05;;;;;;;18.20;12.90;;;;;;;0.95;100.00;101950.79;87161;269;136317;-73
2024/01/31 00:15:07;;;;;;;17.20;12.80;;;;;;;0.96;100.00;101945.88;87253;266;26924;-69
2024/01/31 00:17:08;;;;;;;18.50;13.10;;;;;;;0.95;100.00;101944.90;87224;273;136447;-71
2024/01/31 00:19:10;;;;;;;16.30;12.60;;;;;;;0.91;100.00;101950.50;87281;277;22573;-70
2024/01/31 00:21:14;;;;;;;15.20;11.40;;;;;;;0.86;100.00;101945.39;87483;262;136343;-69
2024/01/31 00:23:19;;;;;;;15.70;13.00;;;;;;;0.83;100.00;101943.81;87191;274;22576;-71
2024/01/31 00:25:21;;;;;;;18.70;12.80;;;;;;;0.78;100.00;101943.69;87324;273;136453;-71
2024/01/31 00:27:23;;;;;;;15.40;12.50;;;;;;;0.77;100.00;101942.89;87861;273;25079;-72
2024/01/31 00:29:25;;;;;;;15.70;12.10;;;;;;;0.78;100.00;101942.36;87118;273;136383;-70
2024/01/31 00:31:27;;;;;;;17.00;13.10;;;;;;;0.78;100.00;101939.90;87242;273;22596;-70
2024/01/31 00:33:29;;;;;;;19.90;13.70;;;;;;;0.77;100.00;101938.89;87142;269;136420;-71
2024/01/31 00:35:31;;;;;;;17.50;12.70;;;;;;;0.83;100.00;101936.80;87249;265;22585;-70
2024/01/31 00:37:33;;;;;;;20.10;13.20;;;;;;;0.93;100.00;101936.59;87291;262;138078;-70
2024/01/31 00:39:35;;;;;;;18.10;13.20;;;;;;;1.01;100.00;101937.90;87375;269;22795;-71
2024/01/31 00:41:37;;;;;;;15.70;12.10;;;;;;;1.04;100.00;101936.34;87154;277;136897;-70
2024/01/31 00:43:39;;;;;;;15.40;12.80;;;;;;;1.02;100.00;101935.91;87239;274;22572;-72
2024/01/31 00:45:40;;;;;;;17.30;12.10;;;;;;;1.00;100.00;101934.83;87041;270;136718;-72
2024/01/31 00:47:43;;;;;;;20.30;13.20;;;;;;;0.98;100.00;101928.09;87388;272;25199;-72
2024/01/31 00:49:45;;;;;;;22.40;14.20;;;;;;;0.98;100.00;101931.96;87337;265;137915;-73
2024/01/31 00:51:47;;;;;;;17.60;13.70;;;;;;;0.98;100.00;101929.31;87221;274;22772;-71
2024/01/31 00:53:49;;;;;;;18.00;13.80;;;;;;;1.01;100.00;101929.89;86978;266;136312;-70
2024/01/31 00:55:51;;;;;;;24.10;15.00;;;;;;;1.03;100.00;101932.73;87101;269;23091;-71
2024/01/31 00:57:54;;;;;;;16.70;13.30;;;;;;;1.04;100.00;101934.45;87036;270;136227;-72
2024/01/31 00:59:56;;;;;;;20.30;14.10;;;;;;;1.01;100.00;101932.98;87038;273;23515;-71
2024/01/31 01:01:58;;;;;;;19.90;13.70;;;;;;;0.97;100.00;101933.57;86963;277;136011;-71
2024/01/31 01:04:00;;;;;;;19.70;13.40;;;;;;;0.94;100.00;101931.62;86973;271;23652;-70
2024/01/31 01:06:02;;;;;;;18.50;14.10;;;;;;;0.92;100.00;101930.17;87000;277;136549;-74
2024/01/31 01:08:04;;;;;;;18.60;14.00;;;;;;;0.91;100.00;101924.48;87200;270;138010;-69
2024/01/31 01:10:09;;;;;;;20.30;14.70;;;;;;;0.91;100.00;101921.11;87338;270;22725;-72
2024/01/31 01:12:11;;;;;;;17.50;12.80;;;;;;;0.90;100.00;101913.86;87117;269;136515;-71
2024/01/31 01:14:13;;;;;;;16.50;12.80;;;;;;;0.88;100.00;101909.90;87175;268;22578;-72
2024/01/31 01:16:18;;;;;;;19.50;13.80;;;;;;;0.89;100.00;101910.23;87093;273;136472;-71
2024/01/31 01:18:19;;;;;;;20.40;14.00;;;;;;;0.95;100.00;101906.74;87355;269;22552;-72
2024/01/31 01:20:21;;;;;;;18.90;13.20;;;;;;;1.04;100.00;101905.01;87089;273;137199;-70
2024/01/31 01:22:23;;;;;;;17.80;13.10;;;;;;;1.13;100.00;101900.77;87262;265;25475;-73
2024/01/31 01:24:25;;;;;;;18.70;14.70;;;;;;;1.20;100.00;101892.55;87157;273;137921;-73
2024/01/31 01:26:27;;;;;;;18.40;13.70;;;;;;;1.20;100.00;101891.98;87185;273;22849;-71
2024/01/31 01:28:29;;;;;;;18.20;14.10;;;;;;;1.20;100.00;101888.15;87005;270;136345;-72
2024/01/31 01:30:31;;;;;;;17.90;13.90;;;;;;;1.19;100.00;101887.15;87159;268;25307;-70
2024/01/31 01:32:33;;;;;;;17.10;13.20;;;;;;;1.18;100.00;101890.56;87057;265;136607;-72
2024/01/31 01:34:34;;;;;;;21.30;13.90;;;;;;;1.16;100.00;101889.25;87085;270;22570;-71
2024/01/31 01:36:37;;;;;;;17.60;12.80;;;;;;;1.13;100.00;101884.86;86964;270;138635;-70
2024/01/31 01:38:38;;;;;;;20.20;14.90;;;;;;;1.12;100.00;101881.44;87247;269;24180;-70
2024/01/31 01:40:44;;;;;;;18.00;13.40;;;;;;;1.11;100.00;101876.07;87055;270;137795;-71
2024/01/31 01:42:46;;;;;;;18.00;13.30;;;;;;;1.08;100.00;101875.86;87348;269;22559;-70
2024/01/31 01:44:48;;;;;;;22.10;13.80;;;;;;;1.06;100.00;101872.81;87099;265;136598;-71
2024/01/31 01:46:50;;;;;;;20.30;13.90;;;;;;;1.04;100.00;101874.03;87234;277;22576;-70
2024/01/31 01:48:52;;;;;;;17.10;13.60;;;;;;;1.01;100.00;101870.15;86840;266;135725;-70
2024/01/31 01:50:54;;;;;;;21.20;14.30;;;;;;;1.01;100.00;101865.78;87637;268;26304;-69
2024/01/31 01:52:56;;;;;;;17.50;13.80;;;;;;;1.01;100.00;101864.23;87036;268;136520;-71
2024/01/31 01:55:02;;;;;;;19.00;12.80;;;;;;;0.99;100.00;101866.62;87224;270;22612;-71
2024/01/31 01:57:05;;;;;;;17.60;12.60;;;;;;;0.96;100.00;101867.78;87637;269;138411;-72
2024/01/31 01:59:07;;;;;;;18.90;13.60;;;;;;;1.03;100.00;101869.51;87002;273;22568;-71
2024/01/31 02:01:12;;;;;;;17.80;13.50;;;;;;;1.10;100.00;101863.69;87092;273;137757;-72
2024/01/31 02:03:17;;;;;;;18.00;13.80;;;;;;;1.17;100.00;101861.90;87784;266;22626;-71
2024/01/31 02:05:20;;;;;;;20.10;13.10;;;;;;;1.20;100.00;101863.77;86988;269;136464;-71
2024/01/31 02:07:26;;;;;;;21.70;13.30;;;;;;;1.19;100.00;101865.23;87618;269;22894;-72
2024/01/31 02:09:30;;;;;;;20.90;15.10;;;;;;;1.19;100.00;101869.29;87014;269;136894;-70
2024/01/31 02:11:34;;;;;;;22.10;15.70;;;;;;;1.19;100.00;101867.36;87495;273;22783;-71
2024/01/31 02:13:36;;;;;;;22.70;15.50;;;;;;;1.20;100.00;101871.34;87101;273;136587;-71
2024/01/31 02:15:37;;;;;;;22.50;15.80;;;;;;;1.21;100.00;101866.73;87105;264;22545;-72
2024/01/31 02:17:39;;;;;;;22.60;16.70;;;;;;;1.23;100.00;101871.34;87112;268;136656;-73
2024/01/31 02:19:41;;;;;;;21.30;15.10;;;;;;;1.24;100.00;101872.70;87132;273;22847;-72
2024/01/31 02:21:43;;;;;;;20.30;15.10;;;;;;;1.22;100.00;101877.17;87099;273;137486;-74
2024/01/31 02:23:45;;;;;;;21.70;16.20;;;;;;;1.21;100.00;101876.90;87261;273;25147;-71
2024/01/31 02:25:48;;;;;;;24.50;15.70;;;;;;;1.20;100.00;101873.75;87171;269;136557;-72
2024/01/31 02:27:50;;;;;;;23.50;16.90;;;;;;;1.19;100.00;101870.33;87404;269;22568;-72
2024/01/31 02:29:52;;;;;;;18.30;14.90;;;;;;;1.19;100.00;101870.52;87180;269;136502;-73
2024/01/31 02:31:53;;;;;;;22.30;16.20;;;;;;;1.16;100.00;101870.15;87269;269;25111;-75
2024/01/31 02:33:55;;;;;;;21.20;14.50;;;;;;;1.13;100.00;101867.89;87179;270;136208;-73
2024/01/31 02:37:07;;;;;;;23.80;15.90;;;;;;;0.93;100.00;101863.05;85082;304;602766;-70
2024/01/31 02:39:09;;;;;;;19.80;14.10;;;;;;;0.84;100.00;101863.79;86408;291;24019;-70
2024/01/31 02:41:12;;;;;;;19.40;14.20;;;;;;;0.84;100.00;101859.02;86113;290;136038;-71
2024/01/31 02:43:15;;;;;;;19.70;14.70;;;;;;;0.85;100.00;101857.76;86336;287;25270;-71
2024/01/31 02:45:17;;;;;;;21.00;13.50;;;;;;;0.86;100.00;101857.03;86338;290;137629;-71
2024/01/31 02:47:19;;;;;;;20.50;14.40;;;;;;;0.85;100.00;101852.33;86135;291;22580;-70
2024/01/31 02:49:21;;;;;;;24.00;16.90;;;;;;;0.81;100.00;101849.08;86123;290;135727;-70
2024/01/31 02:51:22;;;;;;;20.70;14.10;;;;;;;0.75;100.00;101844.86;86113;285;582616;-71
2024/01/31 02:53:24;;;;;;;23.00;15.20;;;;;;;0.72;100.00;101853.11;86286;286;135997;-73
2024/01/31 02:55:26;;;;;;;29.50;14.90;;;;;;;0.66;100.00;101852.92;86449;275;26092;-73
2024/01/31 02:57:29;;;;;;;23.30;15.30;;;;;;;0.62;100.00;101846.13;86458;281;136048;-70
2024/01/31 02:59:31;;;;;;;19.90;15.00;;;;;;;0.58;100.00;101842.66;86937;281;24018;-70
2024/01/31 03:01:36;;;;;;;20.90;15.20;;;;;;;0.55;100.00;101840.59;86486;281;137421;-73
2024/01/31 03:03:38;;;;;;;19.90;15.10;;;;;;;0.49;100.00;101837.74;86684;286;25086;-70
2024/01/31 03:05:40;;;;;;;23.50;15.90;;;;;;;0.46;100.00;101841.77;86531;281;138590;-71
2024/01/31 03:07:42;;;;;;;18.40;13.70;;;;;;;0.42;100.00;101830.98;86656;282;22629;-69
2024/01/31 03:09:45;;;;;;;23.30;16.30;;;;;;;0.37;100.00;101833.20;86845;274;136271;-70
2024/01/31 03:11:47;;;;;;;24.10;16.00;;;;;;;0.32;100.00;101832.60;87009;271;22555;-71
2024/01/31 03:13:50;;;;;;;19.70;15.00;;;;;;;0.29;100.00;101839.42;86875;274;136200;-70
2024/01/31 03:15:52;;;;;;;24.10;15.50;;;;;;;0.30;100.00;101841.61;87115;274;24606;-70
2024/01/31 03:17:54;;;;;;;21.80;15.10;;;;;;;0.37;100.00;101839.83;86917;271;137669;-69
2024/01/31 03:19:56;;;;;;;19.70;14.40;;;;;;;0.44;100.00;101840.11;87014;274;25227;-70
2024/01/31 03:21:58;;;;;;;19.30;15.30;;;;;;;0.50;100.00;101832.08;86937;269;138052;-70
2024/01/31 03:24:00;;;;;;;23.80;15.40;;;;;;;0.54;100.00;101830.27;87015;277;24011;-71
2024/01/31 03:26:02;;;;;;;23.50;15.10;;;;;;;0.54;100.00;101827.35;86917;275;22565;-71
2024/01/31 03:28:04;;;;;;;20.60;14.60;;;;;;;0.54;100.00;101828.34;87099;278;136015;-72
2024/01/31 03:30:07;;;;;;;23.10;16.80;;;;;;;0.54;100.00;101829.92;87017;275;22531;-73
2024/01/31 03:32:11;;;;;;;18.70;14.60;;;;;;;0.55;100.00;101833.94;86957;279;136443;-71
2024/01/31 03:34:14;;;;;;;21.60;15.10;;;;;;;0.54;100.00;101831.34;86974;271;22849;-73
2024/01/31 03:36:16;;;;;;;22.10;15.50;;;;;;;0.53;100.00;101834.02;87064;279;137373;-72
2024/01/31 03:38:18;;;;;;;18.90;14.30;;;;;;;0.53;100.00;101835.97;87061;283;22570;-73
2024/01/31 03:40:20;;;;;;;22.10;15.20;;;;;;;0.50;100.00;101833.49;86917;275;136433;-75
2024/01/31 03:42:22;;;;;;;18.50;14.00;;;;;;;0.48;100.00;101834.30;87167;274;25112;-70
2024/01/31 03:44:24;;;;;;;22.40;16.10;;;;;;;0.47;100.00;101832.44;87102;269;136149;-72
2024/01/31 03:46:26;;;;;;;22.50;15.90;;;;;;;0.46;100.00;101832.70;87109;275;25188;-73
2024/01/31 03:48:30;;;;;;;19.70;16.40;;;;;;;0.46;100.00;101831.80;87206;274;136090;-71
2024/01/31 03:50:32;;;;;;;19.00;14.70;;;;;;;0.46;100.00;101833.01;87199;274;22574;-72
2024/01/31 03:52:35;;;;;;;18.20;14.10;;;;;;;0.51;100.00;101827.69;87010;274;136535;-71
2024/01/31 03:54:38;;;;;;;23.50;15.70;;;;;;;0.60;100.00;101827.35;87304;276;25204;-72
2024/01/31 03:56:42;;;;;;;24.40;15.40;;;;;;;0.67;100.00;101825.04;87063;271;137039;-71
2024/01/31 03:58:44;;;;;;;21.20;16.10;;;;;;;0.72;100.00;101818.77;87608;271;23966;-72
2024/01/31 04:00:46;;;;;;;23.60;15.60;;;;;;;0.74;100.00;101818.83;88601;275;137783;-70
2024/01/31 04:02:49;;;;;;;21.80;15.00;;;;;;;0.73;100.00;101816.83;88576;271;22562;-69
2024/01/31 04:04:53;;;;;;;21.70;17.00;;;;;;;0.69;100.00;101816.30;87664;271;136213;-70
2024/01/31 04:06:55;;;;;;;22.60;15.70;;;;;;;0.68;100.00;101813.23;87292;282;22833;-70
2024/01/31 04:08:57;;;;;;;23.10;17.30;;;;;;;0.68;100.00;101809.91;87256;273;136099;-71
2024/01/31 04:10:59;;;;;;;21.70;16.30;;;;;;;0.66;100.00;101806.36;87242;278;22645;-72
2024/01/31 04:13:00;;;;;;;21.70;15.40;;;;;;;0.62;100.00;101806.42;87066;277;136360;-70
2024/01/31 04:15:03;;;;;;;21.70;16.80;;;;;;;0.59;100.00;101800.98;87202;277;25182;-72
2024/01/31 04:17:04;;;;;;;21.40;15.40;;;;;;;0.55;100.00;101795.62;87181;281;137485;-71
2024/01/31 04:19:07;;;;;;;24.60;17.10;;;;;;;0.50;100.00;101790.83;87093;277;25242;-72
2024/01/31 04:21:18;;;;;;;23.00;15.60;;;;;;;0.46;100.00;101786.33;86828;274;137057;-70
2024/01/31 04:23:20;;;;;;;21.20;15.40;;;;;;;0.47;100.00;101783.83;87122;273;23968;-70
2024/01/31 04:25:22;;;;;;;21.00;14.50;;;;;;;0.49;100.00;101782.14;86967;281;136980;-73
2024/01/31 04:27:24;;;;;;;22.90;15.50;;;;;;;0.48;100.00;101782.52;87077;274;25226;-72
2024/01/31 04:29:25;;;;;;;18.30;13.80;;;;;;;0.44;100.00;101780.34;86951;273;135934;-72
2024/01/31 04:31:27;;;;;;;20.70;15.40;;;;;;;0.37;100.00;101778.44;86985;281;25284;-72
2024/01/31 04:33:29;;;;;;;22.20;14.70;;;;;;;0.33;100.00;101781.45;87064;273;136213;-73
2024/01/31 04:35:31;;;;;;;23.90;15.90;;;;;;;0.31;100.00;101786.46;86985;277;22557;-71
2024/01/31 04:37:32;;;;;;;22.90;16.60;;;;;;;0.31;100.00;101789.09;86969;273;137506;-72
2024/01/31 04:39:37;;;;;;;21.90;15.40;;;;;;;0.32;100.00;101791.80;87096;273;22577;-72
2024/01/31 04:41:40;;;;;;;21.80;14.90;;;;;;;0.34;100.00;101791.01;86996;266;136245;-71
2024/01/31 04:43:42;;;;;;;22.70;16.90;;;;;;;0.35;100.00;101793.39;87061;274;22982;-74
2024/01/31 04:45:44;;;;;;;22.10;16.70;;;;;;;0.37;100.00;101793.84;87016;281;137154;-72
2024/01/31 04:47:46;;;;;;;21.90;16.50;;;;;;;0.37;100.00;101793.98;87055;274;24001;-72
2024/01/31 04:49:48;;;;;;;18.50;15.20;;;;;;;0.44;100.00;101797.46;86915;274;136339;-71
2024/01/31 04:51:51;;;;;;;22.80;15.40;;;;;;;0.52;100.00;101795.95;87009;281;22578;-71
2024/01/31 04:53:53;;;;;;;24.40;16.00;;;;;;;0.57;100.00;101794.77;87016;277;136749;-73
2024/01/31 04:55:56;;;;;;;25.80;17.00;;;;;;;0.63;100.00;101794.60;87224;269;25086;-72
2024/01/31 04:57:58;;;;;;;21.40;15.50;;;;;;;0.66;100.00;101793.06;87207;273;135817;-73
2024/01/31 05:00:02;;;;;;;19.90;15.20;;;;;;;0.65;100.00;101789.24;87281;281;22602;-72
2024/01/31 05:02:06;;;;;;;24.00;16.30;;;;;;;0.66;100.00;101789.05;87154;273;25259;-72
2024/01/31 05:04:08;;;;;;;22.80;16.30;;;;;;;0.66;100.00;101788.86;87054;273;136169;-71
2024/01/31 05:06:11;;;;;;;20.20;15.70;;;;;;;0.66;100.00;101788.52;87256;273;25153;-75
2024/01/31 05:08:13;;;;;;;20.10;14.80;;;;;;;0.66;100.00;101786.58;87132;273;136517;-79
2024/01/31 05:10:14;;;;;;;20.20;15.30;;;;;;;0.66;100.00;101784.84;86797;275;25244;-70
2024/01/31 05:12:16;;;;;;;19.50;15.40;;;;;;;0.65;100.00;101778.96;86801;274;136124;-71
2024/01/31 05:14:18;;;;;;;25.20;16.90;;;;;;;0.64;100.00;101780.23;87047;273;25182;-70
2024/01/31 05:16:20;;;;;;;26.10;16.00;;;;;;;0.64;100.00;101779.55;86784;282;136555;-70
2024/01/31 05:18:22;;;;;;;20.70;16.10;;;;;;;0.64;100.00;101777.80;87035;269;22989;-69
2024/01/31 05:20:24;;;;;;;23.90;16.10;;;;;;;0.65;100.00;101777.59;86956;269;136216;-70
2024/01/31 05:22:26;;;;;;;26.30;16.60;;;;;;;0.65;100.00;101777.75;87143;273;25156;-69
2024/01/31 05:24:29;;;;;;;21.80;15.60;;;;;;;0.68;100.00;101779.31;87234;281;138212;-71
2024/01/31 05:26:31;;;;;;;23.50;15.40;;;;;;;0.73;100.00;101773.40;87098;273;23017;-70
2024/01/31 05:28:33;;;;;;;20.50;15.60;;;;;;;0.78;100.00;101771.54;87099;273;136933;-72
2024/01/31 05:30:35;;;;;;;21.60;16.20;;;;;;;0.82;100.00;101772.00;87016;282;22776;-68
2024/01/31 05:32:37;;;;;;;20.20;15.80;;;;;;;0.84;100.00;101768.55;86984;273;136252;-70
2024/01/31 05:34:42;;;;;;;22.50;16.80;;;;;;;0.83;100.00;101767.89;87108;281;25329;-72
2024/01/31 05:36:44;;;;;;;23.30;17.00;;;;;;;0.81;100.00;101767.70;87049;281;137558;-70
2024/01/31 05:38:46;;;;;;;26.70;17.30;;;;;;;0.78;100.00;101766.64;87094;273;22528;-70
2024/01/31 05:40:48;;;;;;;22.90;17.80;;;;;;;0.76;100.00;101763.94;87068;273;137025;-74
2024/01/31 05:42:49;;;;;;;21.20;16.10;;;;;;;0.75;100.00;101759.61;87126;277;22541;-72
2024/01/31 05:44:54;;;;;;;28.60;18.80;;;;;;;0.75;100.00;101754.40;87142;281;136398;-71
2024/01/31 05:46:56;;;;;;;24.80;16.60;;;;;;;0.73;100.00;101751.55;87025;277;22555;-73
2024/01/31 05:48:58;;;;;;;31.20;18.50;;;;;;;0.69;100.00;101750.02;86768;269;136524;-71
2024/01/31 05:51:00;;;;;;;27.00;16.80;;;;;;;0.66;100.00;101755.83;87022;273;22816;-74
2024/01/31 05:53:01;;;;;;;25.30;18.70;;;;;;;0.66;100.00;101757.55;86841;273;139474;-72
2024/01/31 05:55:04;;;;;;;26.00;16.80;;;;;;;0.72;100.00;101763.31;87084;273;22634;-73
2024/01/31 05:57:06;;;;;;;52.10;19.90;;;;;;;0.82;100.00;101764.65;88495;269;137643;-70
2024/01/31 05:59:08;;;;;;;24.60;17.60;;;;;;;0.91;100.00;101762.70;87201;281;25211;-72
2024/01/31 06:01:10;;;;;;;24.40;17.70;;;;;;;0.95;100.00;101766.16;87061;273;136356;-71
2024/01/31 06:03:12;;;;;;;25.80;17.70;;;;;;;0.95;100.00;101763.20;86946;275;22644;-71
2024/01/31 06:05:14;;;;;;;29.80;18.80;;;;;;;0.95;100.00;101759.19;87013;273;136428;-73
2024/01/31 06:07:17;;;;;;;24.90;17.90;;;;;;;0.95;100.00;101758.64;87244;269;22566;-73
2024/01/31 06:09:19;;;;;;;24.30;18.30;;;;;;;0.96;100.00;101759.96;87020;273;136573;-72
2024/01/31 06:11:21;;;;;;;25.80;17.30;;;;;;;0.99;100.00;101760.52;87027;270;23075;-73
2024/01/31 06:13:23;;;;;;;27.00;18.40;;;;;;;0.99;100.00;101759.66;87133;269;136372;-75
2024/01/31 06:15:26;;;;;;;28.40;17.90;;;;;;;0.96;100.00;101760.68;87086;281;23441;-73
2024/01/31 06:17:28;;;;;;;22.00;17.50;;;;;;;0.93;100.00;101761.70;86871;280;136652;-71
2024/01/31 06:19:30;;;;;;;25.40;17.60;;;;;;;0.92;100.00;101762.68;87118;281;22565;-73
2024/01/31 06:21:32;;;;;;;24.70;20.00;;;;;;;0.98;100.00;101761.95;87049;273;137099;-70
2024/01/31 06:23:34;;;;;;;27.10;17.80;;;;;;;1.10;100.00;101765.62;87143;273;25188;-71
2024/01/31 06:25:36;;;;;;;29.60;16.80;;;;;;;1.20;100.00;101767.66;86829;274;136813;-71
2024/01/31 06:27:39;;;;;;;23.20;17.50;;;;;;;1.26;100.00;101763.64;87130;270;22542;-72
2024/01/31 06:29:42;;;;;;;23.80;18.30;;;;;;;1.29;100.00;101768.17;86898;271;136222;-72
2024/01/31 06:31:48;;;;;;;24.00;17.20;;;;;;;1.35;100.00;101763.05;87024;273;25137;-73
2024/01/31 06:33:50;;;;;;;24.80;17.90;;;;;;;1.42;100.00;101757.40;87037;277;136405;-73
2024/01/31 06:35:52;;;;;;;23.40;17.30;;;;;;;1.47;100.00;101759.39;87025;273;22575;-71
2024/01/31 06:37:55;;;;;;;23.60;17.90;;;;;;;1.52;100.00;101756.45;87055;273;136456;-72
2024/01/31 06:39:57;;;;;;;24.50;18.10;;;;;;;1.59;100.00;101756.56;88590;277;25224;-74
2024/01/31 06:41:58;;;;;;;23.60;16.20;;;;;;;1.65;100.00;101757.73;87051;277;137655;-72
2024/01/31 06:44:00;;;;;;;22.80;17.30;;;;;;;1.68;100.00;101762.44;87170;277;22640;-71
2024/01/31 06:46:02;;;;;;;22.50;17.50;;;;;;;1.72;100.00;101763.27;87026;277;22563;-71
2024/01/31 06:48:08;;;;;;;25.90;17.60;;;;;;;1.73;100.00;101765.29;87009;278;136621;-71
2024/01/31 06:50:11;;;;;;;22.90;17.30;;;;;;;1.74;100.00;101762.77;87129;274;25388;-71
2024/01/31 06:52:14;;;;;;;34.80;20.50;;;;;;;1.76;100.00;101761.79;86977;273;137792;-72
2024/01/31 06:54:16;;;;;;;26.70;18.80;;;;;;;1.77;100.00;101766.45;87141;269;22578;-73
2024/01/31 06:56:19;;;;;;;31.20;20.40;;;;;;;1.80;100.00;101766.46;86941;265;136554;-69
2024/01/31 06:58:21;;;;;;;26.10;17.60;;;;;;;1.89;100.00;101763.08;87374;269;22654;-71
2024/01/31 07:00:23;;;;;;;25.60;18.60;;;;;;;2.06;100.00;101758.84;87198;278;137262;-72
2024/01/31 07:02:26;;;;;;;25.60;16.10;;;;;;;2.21;100.00;101756.16;87273;269;25205;-73
2024/01/31 07:04:28;;;;;;;23.00;17.10;;;;;;;2.30;100.00;101750.44;87204;273;136691;-71
2024/01/31 07:06:30;;;;;;;30.20;17.70;;;;;;;2.33;100.00;101750.46;87270;274;25079;-73
2024/01/31 07:08:32;;;;;;;24.10;17.20;;;;;;;2.31;100.00;101748.80;87138;275;136528;-72
2024/01/31 07:10:35;;;;;;;25.40;18.20;;;;;;;2.28;100.00;101746.73;87234;274;23085;-73
2024/01/31 07:12:38;;;;;;;28.00;18.60;;;;;;;2.25;100.00;101743.22;87182;267;136980;-74
2024/01/31 07:14:43;;;;;;;29.90;19.50;;;;;;;2.23;100.00;101737.59;87332;271;22561;-74
2024/01/31 07:16:45;;;;;;;28.30;19.10;;;;;;;2.22;100.00;101733.12;87254;269;136340;-75
2024/01/31 07:18:48;;;;;;;28.90;19.20;;;;;;;2.23;100.00;101730.56;87269;274;26281;-73
2024/01/31 07:20:50;;;;;;;26.50;18.30;;;;;;;2.28;100.00;101729.89;87107;267;136444;-72
2024/01/31 07:22:52;;;;;;;27.50;18.50;;;;;;;2.29;100.00;101733.52;87247;266;25117;-72
2024/01/31 07:24:53;;;;;;;24.90;18.50;;;;;;;2.26;100.00;101730.04;87200;269;136354;-74
2024/01/31 07:26:55;;;;;;;25.40;19.10;;;;;;;2.25;100.00;101731.27;87362;274;22585;-73
2024/01/31 07:28:58;;;;;;;23.30;18.10;;;;;;;2.27;100.00;101733.98;87197;271;136712;-72
2024/01/31 07:31:02;;;;;;;32.40;19.70;;;;;;;2.29;100.00;101735.95;87443;269;25217;-71
2024/01/31 07:33:04;;;;;;;28.60;20.10;;;;;;;2.33;100.00;101738.31;87147;271;137778;-72
2024/01/31 07:35:07;;;;;;;31.40;18.90;;;;;;;2.39;100.00;101739.88;87395;278;25156;-72
2024/01/31 07:37:09;;;;;;;32.60;20.10;;;;;;;2.44;100.00;101738.47;87270;265;137773;-70
2024/01/31 07:39:11;;;;;;;23.00;19.00;;;;;;;2.54;100.00;101733.83;87407;264;23956;-69
2024/01/31 07:41:14;;;;;;;27.70;18.70;;;;;;;2.63;100.00;101735.99;87429;273;136658;-71
2024/01/31 07:43:17;;;;;;;29.00;20.30;;;;;;;2.69;100.00;101738.80;87392;277;25272;-73
2024/01/31 07:45:19;;;;;;;34.40;19.60;;;;;;;2.68;100.00;101734.77;87240;269;136391;-74
2024/01/31 07:47:21;;;;;;;28.10;20.40;;;;;;;2.71;100.00;101736.87;87238;269;25080;-73
2024/01/31 07:49:22;;;;;;;31.40;20.20;;;;;;;2.75;100.00;101734.66;87021;270;136087;-72
2024/01/31 07:51:24;;;;;;;30.40;19.70;;;;;;;2.84;100.00;101736.91;87212;275;25085;-74
2024/01/31 07:53:26;;;;;;;36.70;20.50;;;;;;;2.91;100.00;101735.33;87138;274;136638;-73
2024/01/31 07:55:29;;;;;;;25.30;18.60;;;;;;;2.98;100.00;101736.80;87353;267;22551;-72
2024/01/31 07:57:31;;;;;;;25.30;18.80;;;;;;;3.00;100.00;101740.02;87228;277;136563;-73
2024/01/31 07:59:35;;;;;;;22.70;18.00;;;;;;;3.07;100.00;101745.15;87309;278;22546;-72
2024/01/31 08:01:37;;;;;;;27.60;19.70;;;;;;;3.17;100.00;101748.19;87317;269;136387;-73
2024/01/31 08:03:41;;;;;;;28.90;19.10;;;;;;;3.24;100.00;101747.36;87325;274;23518;-72
2024/01/31 08:05:44;;;;;;;27.50;20.90;;;;;;;3.23;100.00;101752.33;87216;269;136522;-73
2024/01/31 08:07:46;;;;;;;30.10;22.50;;;;;;;3.18;100.00;101749.48;87192;267;25217;-71
2024/01/31 08:09:48;;;;;;;28.40;21.00;;;;;;;3.12;100.00;101747.64;87338;274;137718;-72
2024/01/31 08:11:50;;;;;;;32.20;23.70;;;;;;;3.14;100.00;101740.67;87330;270;22642;-74
2024/01/31 08:13:52;;;;;;;33.30;21.70;;;;;;;3.23;100.00;101739.88;87327;274;136501;-72
2024/01/31 08:15:55;;;;;;;28.30;21.70;;;;;;;3.30;100.00;101734.64;87280;270;25112;-73
2024/01/31 08:17:57;;;;;;;30.60;22.40;;;;;;;3.36;100.00;101734.71;87057;271;136119;-71
2024/01/31 08:19:59;;;;;;;35.10;21.80;;;;;;;3.41;100.00;101735.94;87222;270;22519;-75
2024/01/31 08:22:04;;;;;;;33.70;21.20;;;;;;;3.49;100.00;101736.63;87015;267;136176;-73
2024/01/31 08:24:06;;;;;;;34.50;24.30;;;;;;;3.63;100.00;101732.35;87180;266;136664;-71
2024/01/31 08:26:17;;;;;;;27.90;22.60;;;;;;;3.74;100.00;101733.48;87047;266;25143;-71
2024/01/31 08:28:19;;;;;;;28.10;20.10;;;;;;;3.84;100.00;101728.70;87094;270;136714;-73
2024/01/31 08:30:44;;;;;;;29.00;21.70;;;;;;;3.95;99.95;101724.98;87019;270;22550;-71
2024/01/31 08:33:01;;;;;;;30.60;21.90;;;;;;;4.12;99.15;101723.55;87103;279;136177;-72
2024/01/31 08:35:05;;;;;;;37.20;23.60;;;;;;;4.20;98.45;101726.27;87496;270;22896;-73
2024/01/31 08:37:07;;;;;;;30.60;22.30;;;;;;;4.29;97.90;101723.13;87179;270;136327;-72
2024/01/31 08:39:09;;;;;;;28.80;20.90;;;;;;;4.38;97.48;101722.66;87250;270;24898;-72
2024/01/31 08:41:11;;;;;;;35.50;21.20;;;;;;;4.47;96.79;101723.24;87050;267;136395;-71
2024/01/31 08:43:13;;;;;;;38.10;21.30;;;;;;;4.53;96.00;101717.67;87214;270;24020;-73
2024/01/31 08:45:15;;;;;;;33.90;20.60;;;;;;;4.58;94.97;101717.70;86980;274;137244;-72
2024/01/31 08:47:17;;;;;;;30.40;21.00;;;;;;;4.58;94.42;101716.59;87154;278;22781;-71
2024/01/31 08:49:21;;;;;;;32.20;20.80;;;;;;;4.60;93.61;101717.55;87255;275;136213;-71
2024/01/31 08:51:23;;;;;;;29.00;20.70;;;;;;;4.57;93.62;101713.67;87186;275;24497;-72
2024/01/31 08:53:25;;;;;;;29.20;18.80;;;;;;;4.57;93.41;101711.74;87105;269;136660;-70
2024/01/31 08:55:26;;;;;;;26.70;18.60;;;;;;;4.59;93.22;101708.58;87272;269;22666;-72
2024/01/31 08:57:28;;;;;;;27.60;19.00;;;;;;;4.64;93.29;101707.38;87247;268;136345;-70
2024/01/31 08:59:30;;;;;;;23.70;17.30;;;;;;;4.71;93.32;101705.58;87243;270;23330;-72
2024/01/31 09:01:32;;;;;;;29.60;19.50;;;;;;;4.79;92.03;101704.80;87173;269;136130;-73
2024/01/31 09:03:35;;;;;;;25.60;18.10;;;;;;;4.82;90.91;101701.40;87249;270;24592;-74
2024/01/31 09:05:37;;;;;;;26.80;17.40;;;;;;;4.83;89.46;101701.52;87141;275;136931;-75
2024/01/31 09:07:39;;;;;;;22.00;15.90;;;;;;;4.84;89.51;101689.80;87423;271;22573;-72
2024/01/31 09:09:41;;;;;;;25.60;16.40;;;;;;;4.88;88.31;101688.24;87177;278;136198;-73
2024/01/31 09:11:43;;;;;;;26.00;16.80;;;;;;;4.90;87.78;101687.61;87306;271;24010;-60
2024/01/31 09:13:45;;;;;;;21.50;17.00;;;;;;;4.91;87.81;101677.68;87062;273;136164;-66
2024/01/31 09:15:47;;;;;;;27.50;18.90;;;;;;;4.95;88.23;101675.80;87166;273;22561;-65
2024/01/31 09:17:49;;;;;;;22.70;16.40;;;;;;;5.02;87.69;101672.43;87038;269;136227;-64
2024/01/31 09:19:50;;;;;;;26.10;17.80;;;;;;;5.07;87.21;101666.70;87183;270;22582;-64
2024/01/31 09:21:52;;;;;;;26.00;17.80;;;;;;;5.08;86.73;101662.59;87163;278;136027;-64